sensor_id;sensor_type;location;lat;lon;timestamp;P1;durP1;ratioP1;P2;durP2;ratioP2
82560;SDS011;72228;51.208;10.468;2023-10-19T00:01:14;20.42;;;10.80;;
82560;SDS011;72228;51.208;10.468;2023-10-19T00:03:44;21.50;;;10.02;;
82560;SDS011;72228;51.208;10.468;2023-10-19T00:06:10;19.65;;;10.73;;
82560;SDS011;72228;51.208;10.468;2023-10-19T00:08:37;18.38;;;10.32;;
82560;SDS011;72228;51.208;10.468;2023-10-19T00:11:10;26.25;;;11.35;;
82560;SDS011;72228;51.208;10.468;2023-10-19T00:13:47;17.55;;;10.13;;
82560;SDS011;72228;51.208;10.468;2023-10-19T00:16:15;24.95;;;12.00;;
82560;SDS011;72228;51.208;10.468;2023-10-19T00:18:48;29.70;;;12.57;;
82560;SDS011;72228;51.208;10.468;2023-10-19T00:21:17;26.33;;;11.65;;
82560;SDS011;72228;51.208;10.468;2023-10-19T00:23:44;23.55;;;11.13;;
82560;SDS011;72228;51.208;10.468;2023-10-19T00:26:13;27.73;;;13.25;;
82560;SDS011;72228;51.208;10.468;2023-10-19T00:28:53;20.60;;;12.10;;
82560;SDS011;72228;51.208;10.468;2023-10-19T00:31:21;20.98;;;11.95;;
82560;SDS011;72228;51.208;10.468;2023-10-19T00:33:48;20.02;;;10.20;;
82560;SDS011;72228;51.208;10.468;2023-10-19T00:36:17;20.85;;;11.05;;
82560;SDS011;72228;51.208;10.468;2023-10-19T00:38:46;20.80;;;9.95;;
82560;SDS011;72228;51.208;10.468;2023-10-19T00:41:17;18.80;;;10.77;;
82560;SDS011;72228;51.208;10.468;2023-10-19T00:43:55;20.23;;;10.35;;
82560;SDS011;72228;51.208;10.468;2023-10-19T00:46:37;20.30;;;11.20;;
82560;SDS011;72228;51.208;10.468;2023-10-19T00:49:07;23.38;;;10.85;;
82560;SDS011;72228;51.208;10.468;2023-10-19T00:51:35;26.88;;;11.95;;
82560;SDS011;72228;51.208;10.468;2023-10-19T00:54:04;27.42;;;11.57;;
82560;SDS011;72228;51.208;10.468;2023-10-19T00:56:36;22.80;;;10.88;;
82560;SDS011;72228;51.208;10.468;2023-10-19T00:59:03;26.75;;;11.05;;
82560;SDS011;72228;51.208;10.468;2023-10-19T01:01:51;24.52;;;11.52;;
82560;SDS011;72228;51.208;10.468;2023-10-19T01:04:23;23.17;;;12.75;;
82560;SDS011;72228;51.208;10.468;2023-10-19T01:06:50;22.52;;;11.88;;
82560;SDS011;72228;51.208;10.468;2023-10-19T01:09:35;19.88;;;10.80;;
82560;SDS011;72228;51.208;10.468;2023-10-19T01:12:02;23.02;;;11.52;;
82560;SDS011;72228;51.208;10.468;2023-10-19T01:15:00;19.45;;;10.20;;
82560;SDS011;72228;51.208;10.468;2023-10-19T01:17:39;20.58;;;11.93;;
82560;SDS011;72228;51.208;10.468;2023-10-19T01:22:50;19.13;;;11.55;;
82560;SDS011;72228;51.208;10.468;2023-10-19T01:25:19;23.80;;;12.73;;
82560;SDS011;72228;51.208;10.468;2023-10-19T01:27:59;21.98;;;11.18;;
82560;SDS011;72228;51.208;10.468;2023-10-19T01:30:32;22.08;;;10.73;;
82560;SDS011;72228;51.208;10.468;2023-10-19T01:32:59;22.13;;;11.23;;
82560;SDS011;72228;51.208;10.468;2023-10-19T01:35:25;22.67;;;12.32;;
82560;SDS011;72228;51.208;10.468;2023-10-19T01:37:52;24.58;;;11.73;;
82560;SDS011;72228;51.208;10.468;2023-10-19T01:40:18;24.92;;;12.75;;
82560;SDS011;72228;51.208;10.468;2023-10-19T01:42:46;24.15;;;11.43;;
82560;SDS011;72228;51.208;10.468;2023-10-19T01:45:12;22.85;;;12.23;;
82560;SDS011;72228;51.208;10.468;2023-10-19T01:47:40;27.25;;;13.68;;
82560;SDS011;72228;51.208;10.468;2023-10-19T01:50:08;25.45;;;12.98;;
82560;SDS011;72228;51.208;10.468;2023-10-19T01:52:45;23.65;;;11.48;;
82560;SDS011;72228;51.208;10.468;2023-10-19T01:55:11;23.67;;;12.00;;
82560;SDS011;72228;51.208;10.468;2023-10-19T01:57:38;22.15;;;11.18;;
82560;SDS011;72228;51.208;10.468;2023-10-19T02:00:05;22.13;;;11.73;;
82560;SDS011;72228;51.208;10.468;2023-10-19T02:02:37;24.70;;;11.90;;
82560;SDS011;72228;51.208;10.468;2023-10-19T02:05:03;21.88;;;12.50;;
82560;SDS011;72228;51.208;10.468;2023-10-19T02:07:35;26.52;;;12.30;;
82560;SDS011;72228;51.208;10.468;2023-10-19T02:10:01;24.52;;;12.60;;
82560;SDS011;72228;51.208;10.468;2023-10-19T02:12:28;21.92;;;12.02;;
82560;SDS011;72228;51.208;10.468;2023-10-19T02:14:55;23.33;;;12.60;;
82560;SDS011;72228;51.208;10.468;2023-10-19T02:17:21;25.90;;;12.73;;
82560;SDS011;72228;51.208;10.468;2023-10-19T02:19:49;22.25;;;11.45;;
82560;SDS011;72228;51.208;10.468;2023-10-19T02:22:15;23.65;;;14.02;;
82560;SDS011;72228;51.208;10.468;2023-10-19T02:24:45;21.92;;;12.30;;
82560;SDS011;72228;51.208;10.468;2023-10-19T02:27:11;26.40;;;12.77;;
82560;SDS011;72228;51.208;10.468;2023-10-19T02:29:36;22.83;;;12.38;;
82560;SDS011;72228;51.208;10.468;2023-10-19T02:32:04;22.52;;;12.07;;
82560;SDS011;72228;51.208;10.468;2023-10-19T02:34:30;25.40;;;11.98;;
82560;SDS011;72228;51.208;10.468;2023-10-19T02:37:00;28.15;;;13.70;;
82560;SDS011;72228;51.208;10.468;2023-10-19T02:39:27;27.50;;;13.45;;
82560;SDS011;72228;51.208;10.468;2023-10-19T02:41:54;24.55;;;13.27;;
82560;SDS011;72228;51.208;10.468;2023-10-19T02:44:27;21.02;;;11.27;;
82560;SDS011;72228;51.208;10.468;2023-10-19T02:46:55;26.20;;;12.55;;
82560;SDS011;72228;51.208;10.468;2023-10-19T02:49:24;31.13;;;13.65;;
82560;SDS011;72228;51.208;10.468;2023-10-19T02:51:53;23.08;;;12.70;;
82560;SDS011;72228;51.208;10.468;2023-10-19T02:54:22;25.88;;;12.30;;
82560;SDS011;72228;51.208;10.468;2023-10-19T02:56:50;23.10;;;12.73;;
82560;SDS011;72228;51.208;10.468;2023-10-19T02:59:20;23.48;;;13.23;;
82560;SDS011;72228;51.208;10.468;2023-10-19T03:01:53;24.40;;;12.77;;
82560;SDS011;72228;51.208;10.468;2023-10-19T03:04:28;26.65;;;13.60;;
82560;SDS011;72228;51.208;10.468;2023-10-19T03:06:54;23.80;;;12.43;;
82560;SDS011;72228;51.208;10.468;2023-10-19T03:09:23;24.20;;;13.77;;
82560;SDS011;72228;51.208;10.468;2023-10-19T03:11:54;22.42;;;11.43;;
82560;SDS011;72228;51.208;10.468;2023-10-19T03:14:22;26.05;;;12.20;;
82560;SDS011;72228;51.208;10.468;2023-10-19T03:16:51;27.23;;;13.80;;
82560;SDS011;72228;51.208;10.468;2023-10-19T03:19:17;26.85;;;13.02;;
82560;SDS011;72228;51.208;10.468;2023-10-19T03:21:43;25.15;;;13.52;;
82560;SDS011;72228;51.208;10.468;2023-10-19T03:24:11;28.08;;;13.93;;
82560;SDS011;72228;51.208;10.468;2023-10-19T03:26:38;31.85;;;14.20;;
82560;SDS011;72228;51.208;10.468;2023-10-19T03:29:25;28.08;;;12.85;;
82560;SDS011;72228;51.208;10.468;2023-10-19T03:31:56;27.55;;;12.95;;
82560;SDS011;72228;51.208;10.468;2023-10-19T03:34:24;24.27;;;11.75;;
82560;SDS011;72228;51.208;10.468;2023-10-19T03:36:50;28.20;;;12.73;;
82560;SDS011;72228;51.208;10.468;2023-10-19T03:39:16;23.63;;;11.63;;
82560;SDS011;72228;51.208;10.468;2023-10-19T03:41:46;27.20;;;13.25;;
82560;SDS011;72228;51.208;10.468;2023-10-19T03:44:12;22.00;;;12.40;;
82560;SDS011;72228;51.208;10.468;2023-10-19T03:46:52;27.23;;;13.23;;
82560;SDS011;72228;51.208;10.468;2023-10-19T03:49:20;23.42;;;12.93;;
82560;SDS011;72228;51.208;10.468;2023-10-19T03:51:46;25.52;;;13.07;;
82560;SDS011;72228;51.208;10.468;2023-10-19T03:54:26;24.88;;;12.95;;
82560;SDS011;72228;51.208;10.468;2023-10-19T03:56:53;26.73;;;13.40;;
82560;SDS011;72228;51.208;10.468;2023-10-19T03:59:22;26.20;;;13.98;;
82560;SDS011;72228;51.208;10.468;2023-10-19T04:01:49;24.20;;;12.73;;
82560;SDS011;72228;51.208;10.468;2023-10-19T04:04:14;25.10;;;12.38;;
82560;SDS011;72228;51.208;10.468;2023-10-19T04:06:41;20.90;;;10.95;;
82560;SDS011;72228;51.208;10.468;2023-10-19T04:09:14;25.48;;;13.77;;
82560;SDS011;72228;51.208;10.468;2023-10-19T04:14:15;21.83;;;9.77;;
82560;SDS011;72228;51.208;10.468;2023-10-19T04:16:42;23.30;;;12.40;;
82560;SDS011;72228;51.208;10.468;2023-10-19T04:19:11;23.98;;;12.35;;
82560;SDS011;72228;51.208;10.468;2023-10-19T04:21:37;21.88;;;10.65;;
82560;SDS011;72228;51.208;10.468;2023-10-19T04:24:10;19.58;;;10.63;;
82560;SDS011;72228;51.208;10.468;2023-10-19T04:26:39;26.52;;;13.77;;
82560;SDS011;72228;51.208;10.468;2023-10-19T04:29:06;24.45;;;13.10;;
82560;SDS011;72228;51.208;10.468;2023-10-19T04:31:42;25.15;;;12.02;;
82560;SDS011;72228;51.208;10.468;2023-10-19T04:34:21;21.77;;;12.38;;
82560;SDS011;72228;51.208;10.468;2023-10-19T04:36:48;23.80;;;12.18;;
82560;SDS011;72228;51.208;10.468;2023-10-19T04:39:14;29.20;;;12.20;;
82560;SDS011;72228;51.208;10.468;2023-10-19T04:41:40;27.08;;;13.10;;
82560;SDS011;72228;51.208;10.468;2023-10-19T04:44:06;24.67;;;12.82;;
82560;SDS011;72228;51.208;10.468;2023-10-19T04:46:36;25.58;;;11.80;;
82560;SDS011;72228;51.208;10.468;2023-10-19T04:49:02;23.40;;;11.90;;
82560;SDS011;72228;51.208;10.468;2023-10-19T04:51:31;18.17;;;10.00;;
82560;SDS011;72228;51.208;10.468;2023-10-19T04:53:58;26.63;;;14.43;;
82560;SDS011;72228;51.208;10.468;2023-10-19T04:56:24;22.90;;;13.15;;
82560;SDS011;72228;51.208;10.468;2023-10-19T04:58:50;23.23;;;12.77;;
82560;SDS011;72228;51.208;10.468;2023-10-19T05:01:16;23.02;;;12.65;;
82560;SDS011;72228;51.208;10.468;2023-10-19T05:03:41;25.52;;;12.48;;
82560;SDS011;72228;51.208;10.468;2023-10-19T05:06:07;25.60;;;12.27;;
82560;SDS011;72228;51.208;10.468;2023-10-19T05:08:35;24.02;;;12.23;;
82560;SDS011;72228;51.208;10.468;2023-10-19T05:11:02;23.38;;;12.23;;
82560;SDS011;72228;51.208;10.468;2023-10-19T05:13:29;25.55;;;12.50;;
82560;SDS011;72228;51.208;10.468;2023-10-19T05:15:56;27.55;;;12.35;;
82560;SDS011;72228;51.208;10.468;2023-10-19T05:18:25;22.73;;;12.23;;
82560;SDS011;72228;51.208;10.468;2023-10-19T05:20:54;25.65;;;12.75;;
82560;SDS011;72228;51.208;10.468;2023-10-19T05:23:23;26.75;;;13.10;;
82560;SDS011;72228;51.208;10.468;2023-10-19T05:25:53;27.48;;;12.48;;
82560;SDS011;72228;51.208;10.468;2023-10-19T05:28:24;23.60;;;12.10;;
82560;SDS011;72228;51.208;10.468;2023-10-19T05:30:51;25.60;;;13.05;;
82560;SDS011;72228;51.208;10.468;2023-10-19T05:33:17;27.90;;;14.20;;
82560;SDS011;72228;51.208;10.468;2023-10-19T05:35:47;25.42;;;13.25;;
82560;SDS011;72228;51.208;10.468;2023-10-19T05:38:13;28.00;;;12.98;;
82560;SDS011;72228;51.208;10.468;2023-10-19T05:40:39;19.40;;;11.02;;
82560;SDS011;72228;51.208;10.468;2023-10-19T05:43:08;28.45;;;14.00;;
82560;SDS011;72228;51.208;10.468;2023-10-19T05:45:34;24.58;;;12.45;;
82560;SDS011;72228;51.208;10.468;2023-10-19T05:48:01;21.75;;;10.55;;
82560;SDS011;72228;51.208;10.468;2023-10-19T05:50:29;25.38;;;12.10;;
82560;SDS011;72228;51.208;10.468;2023-10-19T05:52:55;30.38;;;13.35;;
82560;SDS011;72228;51.208;10.468;2023-10-19T05:55:21;24.73;;;14.73;;
82560;SDS011;72228;51.208;10.468;2023-10-19T05:57:47;22.02;;;11.63;;
82560;SDS011;72228;51.208;10.468;2023-10-19T06:00:13;31.23;;;15.45;;
82560;SDS011;72228;51.208;10.468;2023-10-19T06:02:40;24.35;;;12.90;;
82560;SDS011;72228;51.208;10.468;2023-10-19T06:05:09;27.48;;;12.95;;
82560;SDS011;72228;51.208;10.468;2023-10-19T06:07:34;29.15;;;14.55;;
82560;SDS011;72228;51.208;10.468;2023-10-19T06:10:01;28.27;;;14.07;;
82560;SDS011;72228;51.208;10.468;2023-10-19T06:12:30;26.58;;;14.65;;
82560;SDS011;72228;51.208;10.468;2023-10-19T06:14:57;29.65;;;14.05;;
82560;SDS011;72228;51.208;10.468;2023-10-19T06:17:23;25.55;;;12.32;;
82560;SDS011;72228;51.208;10.468;2023-10-19T06:19:49;23.95;;;12.55;;
82560;SDS011;72228;51.208;10.468;2023-10-19T06:22:14;25.92;;;12.20;;
82560;SDS011;72228;51.208;10.468;2023-10-19T06:24:43;24.33;;;13.32;;
82560;SDS011;72228;51.208;10.468;2023-10-19T06:27:09;30.80;;;17.13;;
82560;SDS011;72228;51.208;10.468;2023-10-19T06:29:35;25.40;;;13.50;;
82560;SDS011;72228;51.208;10.468;2023-10-19T06:32:01;25.60;;;13.45;;
82560;SDS011;72228;51.208;10.468;2023-10-19T06:34:28;25.83;;;14.27;;
82560;SDS011;72228;51.208;10.468;2023-10-19T06:36:54;29.63;;;16.52;;
82560;SDS011;72228;51.208;10.468;2023-10-19T06:39:20;34.88;;;16.45;;
82560;SDS011;72228;51.208;10.468;2023-10-19T06:41:47;37.08;;;17.73;;
82560;SDS011;72228;51.208;10.468;2023-10-19T06:44:13;30.50;;;14.88;;
82560;SDS011;72228;51.208;10.468;2023-10-19T06:46:39;26.55;;;13.18;;
82560;SDS011;72228;51.208;10.468;2023-10-19T06:49:05;24.10;;;13.05;;
82560;SDS011;72228;51.208;10.468;2023-10-19T06:51:31;28.02;;;13.43;;
82560;SDS011;72228;51.208;10.468;2023-10-19T06:53:58;26.52;;;13.15;;
82560;SDS011;72228;51.208;10.468;2023-10-19T06:56:24;28.27;;;13.40;;
82560;SDS011;72228;51.208;10.468;2023-10-19T06:58:50;22.40;;;12.07;;
82560;SDS011;72228;51.208;10.468;2023-10-19T07:01:16;23.10;;;12.63;;
82560;SDS011;72228;51.208;10.468;2023-10-19T07:03:43;22.13;;;12.65;;
82560;SDS011;72228;51.208;10.468;2023-10-19T07:06:09;20.85;;;12.02;;
82560;SDS011;72228;51.208;10.468;2023-10-19T07:08:39;19.92;;;10.98;;
82560;SDS011;72228;51.208;10.468;2023-10-19T07:11:06;21.67;;;11.73;;
82560;SDS011;72228;51.208;10.468;2023-10-19T07:13:33;24.02;;;11.68;;
82560;SDS011;72228;51.208;10.468;2023-10-19T07:15:59;19.45;;;11.52;;
82560;SDS011;72228;51.208;10.468;2023-10-19T07:18:25;20.30;;;11.20;;
82560;SDS011;72228;51.208;10.468;2023-10-19T07:20:51;20.15;;;10.60;;
82560;SDS011;72228;51.208;10.468;2023-10-19T07:23:18;22.15;;;10.30;;
82560;SDS011;72228;51.208;10.468;2023-10-19T07:25:47;22.10;;;10.20;;
82560;SDS011;72228;51.208;10.468;2023-10-19T07:28:18;20.23;;;10.48;;
82560;SDS011;72228;51.208;10.468;2023-10-19T07:30:45;20.00;;;10.98;;
82560;SDS011;72228;51.208;10.468;2023-10-19T07:33:12;20.38;;;10.95;;
82560;SDS011;72228;51.208;10.468;2023-10-19T07:35:46;19.20;;;10.90;;
82560;SDS011;72228;51.208;10.468;2023-10-19T07:38:13;17.48;;;10.20;;
82560;SDS011;72228;51.208;10.468;2023-10-19T07:40:40;21.67;;;12.30;;
82560;SDS011;72228;51.208;10.468;2023-10-19T07:43:06;25.83;;;13.05;;
82560;SDS011;72228;51.208;10.468;2023-10-19T07:45:33;21.20;;;12.15;;
82560;SDS011;72228;51.208;10.468;2023-10-19T07:48:00;27.23;;;12.32;;
82560;SDS011;72228;51.208;10.468;2023-10-19T07:50:34;24.13;;;12.07;;
82560;SDS011;72228;51.208;10.468;2023-10-19T07:53:01;23.02;;;11.77;;
82560;SDS011;72228;51.208;10.468;2023-10-19T07:55:28;26.75;;;12.43;;
82560;SDS011;72228;51.208;10.468;2023-10-19T07:57:57;21.58;;;10.32;;
82560;SDS011;72228;51.208;10.468;2023-10-19T08:00:26;25.48;;;13.70;;
82560;SDS011;72228;51.208;10.468;2023-10-19T08:02:52;24.63;;;12.55;;
82560;SDS011;72228;51.208;10.468;2023-10-19T08:05:21;24.73;;;13.02;;
82560;SDS011;72228;51.208;10.468;2023-10-19T08:07:47;29.67;;;13.27;;
82560;SDS011;72228;51.208;10.468;2023-10-19T08:10:14;30.45;;;13.65;;
82560;SDS011;72228;51.208;10.468;2023-10-19T08:12:42;27.88;;;14.13;;
82560;SDS011;72228;51.208;10.468;2023-10-19T08:15:09;29.30;;;13.63;;
82560;SDS011;72228;51.208;10.468;2023-10-19T08:17:39;27.85;;;13.52;;
82560;SDS011;72228;51.208;10.468;2023-10-19T08:20:06;27.67;;;13.75;;
82560;SDS011;72228;51.208;10.468;2023-10-19T08:22:42;29.13;;;13.52;;
82560;SDS011;72228;51.208;10.468;2023-10-19T08:25:09;25.75;;;12.82;;
82560;SDS011;72228;51.208;10.468;2023-10-19T08:27:43;30.25;;;13.77;;
82560;SDS011;72228;51.208;10.468;2023-10-19T08:30:11;27.52;;;12.43;;
82560;SDS011;72228;51.208;10.468;2023-10-19T08:32:39;31.08;;;14.15;;
82560;SDS011;72228;51.208;10.468;2023-10-19T08:35:08;28.15;;;14.82;;
82560;SDS011;72228;51.208;10.468;2023-10-19T08:37:40;33.65;;;15.10;;
82560;SDS011;72228;51.208;10.468;2023-10-19T08:40:07;34.10;;;15.95;;
82560;SDS011;72228;51.208;10.468;2023-10-19T08:42:43;34.22;;;15.15;;
82560;SDS011;72228;51.208;10.468;2023-10-19T08:45:16;29.20;;;14.32;;
82560;SDS011;72228;51.208;10.468;2023-10-19T08:47:52;32.53;;;14.18;;
82560;SDS011;72228;51.208;10.468;2023-10-19T08:50:26;33.17;;;15.32;;
82560;SDS011;72228;51.208;10.468;2023-10-19T08:52:55;33.67;;;13.93;;
82560;SDS011;72228;51.208;10.468;2023-10-19T08:55:22;35.25;;;16.00;;
82560;SDS011;72228;51.208;10.468;2023-10-19T08:57:52;33.00;;;15.07;;
82560;SDS011;72228;51.208;10.468;2023-10-19T09:00:19;31.25;;;14.63;;
82560;SDS011;72228;51.208;10.468;2023-10-19T09:02:46;29.55;;;14.05;;
82560;SDS011;72228;51.208;10.468;2023-10-19T09:05:12;30.52;;;14.20;;
82560;SDS011;72228;51.208;10.468;2023-10-19T09:07:46;37.40;;;16.20;;
82560;SDS011;72228;51.208;10.468;2023-10-19T09:10:16;24.83;;;13.82;;
82560;SDS011;72228;51.208;10.468;2023-10-19T09:12:42;29.88;;;14.93;;
82560;SDS011;72228;51.208;10.468;2023-10-19T09:15:21;27.38;;;14.07;;
82560;SDS011;72228;51.208;10.468;2023-10-19T09:17:49;28.35;;;13.63;;
82560;SDS011;72228;51.208;10.468;2023-10-19T09:20:14;25.33;;;13.27;;
82560;SDS011;72228;51.208;10.468;2023-10-19T09:22:53;30.35;;;14.27;;
82560;SDS011;72228;51.208;10.468;2023-10-19T09:25:23;28.75;;;13.98;;
82560;SDS011;72228;51.208;10.468;2023-10-19T09:27:50;31.00;;;14.60;;
82560;SDS011;72228;51.208;10.468;2023-10-19T09:30:17;28.58;;;14.55;;
82560;SDS011;72228;51.208;10.468;2023-10-19T09:32:48;30.30;;;14.80;;
82560;SDS011;72228;51.208;10.468;2023-10-19T09:35:15;28.40;;;15.35;;
82560;SDS011;72228;51.208;10.468;2023-10-19T09:37:41;31.17;;;14.77;;
82560;SDS011;72228;51.208;10.468;2023-10-19T09:40:08;27.27;;;14.02;;
82560;SDS011;72228;51.208;10.468;2023-10-19T09:42:47;30.23;;;14.82;;
82560;SDS011;72228;51.208;10.468;2023-10-19T09:45:19;29.98;;;13.73;;
82560;SDS011;72228;51.208;10.468;2023-10-19T09:47:49;24.70;;;12.95;;
82560;SDS011;72228;51.208;10.468;2023-10-19T09:50:19;29.05;;;13.45;;
82560;SDS011;72228;51.208;10.468;2023-10-19T09:52:45;30.40;;;15.35;;
82560;SDS011;72228;51.208;10.468;2023-10-19T09:55:29;32.35;;;14.73;;
82560;SDS011;72228;51.208;10.468;2023-10-19T09:58:06;26.85;;;13.35;;
82560;SDS011;72228;51.208;10.468;2023-10-19T10:00:43;31.75;;;14.38;;
82560;SDS011;72228;51.208;10.468;2023-10-19T10:06:10;28.35;;;13.75;;
82560;SDS011;72228;51.208;10.468;2023-10-19T10:08:40;27.42;;;15.30;;
82560;SDS011;72228;51.208;10.468;2023-10-19T10:11:18;31.60;;;14.57;;
82560;SDS011;72228;51.208;10.468;2023-10-19T10:13:45;26.80;;;13.30;;
82560;SDS011;72228;51.208;10.468;2023-10-19T10:16:20;26.80;;;13.57;;
82560;SDS011;72228;51.208;10.468;2023-10-19T10:18:51;28.27;;;14.27;;
82560;SDS011;72228;51.208;10.468;2023-10-19T10:21:24;26.10;;;13.45;;
82560;SDS011;72228;51.208;10.468;2023-10-19T10:23:55;24.77;;;12.98;;
82560;SDS011;72228;51.208;10.468;2023-10-19T10:26:24;25.75;;;13.88;;
82560;SDS011;72228;51.208;10.468;2023-10-19T10:29:08;27.80;;;14.10;;
82560;SDS011;72228;51.208;10.468;2023-10-19T10:31:47;26.58;;;13.18;;
82560;SDS011;72228;51.208;10.468;2023-10-19T10:37:05;19.73;;;11.23;;
82560;SDS011;72228;51.208;10.468;2023-10-19T10:39:37;23.77;;;13.82;;
82560;SDS011;72228;51.208;10.468;2023-10-19T10:42:04;23.60;;;12.18;;
82560;SDS011;72228;51.208;10.468;2023-10-19T10:44:41;21.45;;;11.85;;
82560;SDS011;72228;51.208;10.468;2023-10-19T10:47:15;26.08;;;13.50;;
82560;SDS011;72228;51.208;10.468;2023-10-19T10:52:29;26.40;;;13.50;;
82560;SDS011;72228;51.208;10.468;2023-10-19T10:55:06;24.38;;;12.20;;
82560;SDS011;72228;51.208;10.468;2023-10-19T10:57:37;23.52;;;12.20;;
82560;SDS011;72228;51.208;10.468;2023-10-19T11:00:11;20.52;;;11.90;;
82560;SDS011;72228;51.208;10.468;2023-10-19T11:02:42;23.52;;;11.95;;
82560;SDS011;72228;51.208;10.468;2023-10-19T11:05:09;21.40;;;11.45;;
82560;SDS011;72228;51.208;10.468;2023-10-19T11:07:40;21.23;;;11.50;;
82560;SDS011;72228;51.208;10.468;2023-10-19T11:10:27;19.83;;;10.48;;
82560;SDS011;72228;51.208;10.468;2023-10-19T11:12:59;24.77;;;11.68;;
82560;SDS011;72228;51.208;10.468;2023-10-19T11:15:26;22.40;;;11.52;;
82560;SDS011;72228;51.208;10.468;2023-10-19T11:17:52;19.83;;;10.68;;
82560;SDS011;72228;51.208;10.468;2023-10-19T11:20:22;24.60;;;11.82;;
82560;SDS011;72228;51.208;10.468;2023-10-19T11:22:49;21.42;;;11.00;;
82560;SDS011;72228;51.208;10.468;2023-10-19T11:25:25;20.05;;;11.18;;
82560;SDS011;72228;51.208;10.468;2023-10-19T11:27:55;20.55;;;11.07;;
82560;SDS011;72228;51.208;10.468;2023-10-19T11:30:23;19.77;;;11.05;;
82560;SDS011;72228;51.208;10.468;2023-10-19T11:32:50;20.65;;;10.70;;
82560;SDS011;72228;51.208;10.468;2023-10-19T11:35:22;19.45;;;10.02;;
82560;SDS011;72228;51.208;10.468;2023-10-19T11:37:52;19.60;;;10.13;;
82560;SDS011;72228;51.208;10.468;2023-10-19T11:40:22;19.20;;;10.35;;
82560;SDS011;72228;51.208;10.468;2023-10-19T11:42:49;20.25;;;11.02;;
82560;SDS011;72228;51.208;10.468;2023-10-19T11:45:16;19.15;;;10.75;;
82560;SDS011;72228;51.208;10.468;2023-10-19T11:47:45;20.27;;;9.77;;
82560;SDS011;72228;51.208;10.468;2023-10-19T11:50:11;17.77;;;9.95;;
82560;SDS011;72228;51.208;10.468;2023-10-19T11:55:05;15.13;;;8.93;;
82560;SDS011;72228;51.208;10.468;2023-10-19T11:57:34;18.70;;;9.50;;
82560;SDS011;72228;51.208;10.468;2023-10-19T12:00:02;19.08;;;11.23;;
82560;SDS011;72228;51.208;10.468;2023-10-19T12:02:37;18.70;;;10.45;;
82560;SDS011;72228;51.208;10.468;2023-10-19T12:05:07;15.60;;;9.68;;
82560;SDS011;72228;51.208;10.468;2023-10-19T12:07:38;17.98;;;9.75;;
82560;SDS011;72228;51.208;10.468;2023-10-19T12:10:09;19.05;;;10.80;;
82560;SDS011;72228;51.208;10.468;2023-10-19T12:12:38;18.63;;;10.23;;
82560;SDS011;72228;51.208;10.468;2023-10-19T12:15:05;17.58;;;10.07;;
82560;SDS011;72228;51.208;10.468;2023-10-19T12:17:31;21.48;;;9.98;;
82560;SDS011;72228;51.208;10.468;2023-10-19T12:19:58;20.67;;;11.63;;
82560;SDS011;72228;51.208;10.468;2023-10-19T12:22:24;20.20;;;10.90;;
82560;SDS011;72228;51.208;10.468;2023-10-19T12:24:53;20.77;;;11.43;;
82560;SDS011;72228;51.208;10.468;2023-10-19T12:27:22;19.05;;;10.90;;
82560;SDS011;72228;51.208;10.468;2023-10-19T12:32:16;18.58;;;11.20;;
82560;SDS011;72228;51.208;10.468;2023-10-19T12:34:41;19.42;;;10.85;;
82560;SDS011;72228;51.208;10.468;2023-10-19T12:37:07;23.48;;;11.02;;
82560;SDS011;72228;51.208;10.468;2023-10-19T12:39:35;19.77;;;11.93;;
82560;SDS011;72228;51.208;10.468;2023-10-19T12:42:03;17.17;;;10.40;;
82560;SDS011;72228;51.208;10.468;2023-10-19T12:44:31;18.80;;;10.77;;
82560;SDS011;72228;51.208;10.468;2023-10-19T12:47:05;18.75;;;11.25;;
82560;SDS011;72228;51.208;10.468;2023-10-19T12:49:35;20.80;;;11.80;;
82560;SDS011;72228;51.208;10.468;2023-10-19T12:52:06;17.55;;;11.55;;
82560;SDS011;72228;51.208;10.468;2023-10-19T12:54:34;19.40;;;9.90;;
82560;SDS011;72228;51.208;10.468;2023-10-19T12:57:03;20.67;;;10.73;;
82560;SDS011;72228;51.208;10.468;2023-10-19T12:59:33;19.77;;;11.07;;
82560;SDS011;72228;51.208;10.468;2023-10-19T13:02:03;20.98;;;9.85;;
82560;SDS011;72228;51.208;10.468;2023-10-19T13:04:34;16.98;;;9.95;;
82560;SDS011;72228;51.208;10.468;2023-10-19T13:07:00;20.20;;;10.90;;
82560;SDS011;72228;51.208;10.468;2023-10-19T13:09:28;19.60;;;11.02;;
82560;SDS011;72228;51.208;10.468;2023-10-19T13:11:57;18.90;;;10.65;;
82560;SDS011;72228;51.208;10.468;2023-10-19T13:14:24;19.63;;;10.85;;
82560;SDS011;72228;51.208;10.468;2023-10-19T13:16:50;19.52;;;10.93;;
82560;SDS011;72228;51.208;10.468;2023-10-19T13:19:17;19.33;;;10.98;;
82560;SDS011;72228;51.208;10.468;2023-10-19T13:21:49;18.67;;;11.10;;
82560;SDS011;72228;51.208;10.468;2023-10-19T13:24:16;18.20;;;9.85;;
82560;SDS011;72228;51.208;10.468;2023-10-19T13:26:46;21.48;;;11.02;;
82560;SDS011;72228;51.208;10.468;2023-10-19T13:29:13;18.38;;;10.43;;
82560;SDS011;72228;51.208;10.468;2023-10-19T13:31:40;17.35;;;9.77;;
82560;SDS011;72228;51.208;10.468;2023-10-19T13:34:09;16.30;;;10.15;;
82560;SDS011;72228;51.208;10.468;2023-10-19T13:36:36;16.85;;;10.10;;
82560;SDS011;72228;51.208;10.468;2023-10-19T13:39:02;18.63;;;11.50;;
82560;SDS011;72228;51.208;10.468;2023-10-19T13:41:29;17.05;;;10.48;;
82560;SDS011;72228;51.208;10.468;2023-10-19T13:43:55;21.80;;;10.88;;
82560;SDS011;72228;51.208;10.468;2023-10-19T13:46:21;21.17;;;10.85;;
82560;SDS011;72228;51.208;10.468;2023-10-19T13:48:49;21.48;;;11.73;;
82560;SDS011;72228;51.208;10.468;2023-10-19T13:51:16;19.08;;;10.35;;
82560;SDS011;72228;51.208;10.468;2023-10-19T13:53:44;20.98;;;10.55;;
82560;SDS011;72228;51.208;10.468;2023-10-19T13:56:10;18.75;;;11.07;;
82560;SDS011;72228;51.208;10.468;2023-10-19T13:58:37;18.05;;;10.25;;
82560;SDS011;72228;51.208;10.468;2023-10-19T14:01:10;20.40;;;11.63;;
82560;SDS011;72228;51.208;10.468;2023-10-19T14:03:39;18.70;;;10.38;;
82560;SDS011;72228;51.208;10.468;2023-10-19T14:06:05;18.05;;;11.02;;
82560;SDS011;72228;51.208;10.468;2023-10-19T14:08:37;21.80;;;11.63;;
82560;SDS011;72228;51.208;10.468;2023-10-19T14:11:03;19.73;;;10.57;;
82560;SDS011;72228;51.208;10.468;2023-10-19T14:13:29;19.45;;;11.02;;
82560;SDS011;72228;51.208;10.468;2023-10-19T14:15:55;16.88;;;10.45;;
82560;SDS011;72228;51.208;10.468;2023-10-19T14:18:21;18.15;;;10.48;;
82560;SDS011;72228;51.208;10.468;2023-10-19T14:20:47;18.10;;;10.73;;
82560;SDS011;72228;51.208;10.468;2023-10-19T14:23:13;19.65;;;11.60;;
82560;SDS011;72228;51.208;10.468;2023-10-19T14:25:39;21.55;;;10.68;;
82560;SDS011;72228;51.208;10.468;2023-10-19T14:28:07;21.88;;;11.32;;
82560;SDS011;72228;51.208;10.468;2023-10-19T14:30:35;20.45;;;11.23;;
82560;SDS011;72228;51.208;10.468;2023-10-19T14:33:01;23.63;;;11.07;;
82560;SDS011;72228;51.208;10.468;2023-10-19T14:35:27;23.25;;;11.98;;
82560;SDS011;72228;51.208;10.468;2023-10-19T14:37:54;24.73;;;11.63;;